Time;durP1;ratioP1;P1;durP2;ratioP2;P2;SDS_P1;SDS_P2;PMS_P1;PMS_P2;Temp;Humidity;BMP_temperature;BMP_pressure;BME280_temperature;BME280_humidity;BME280_pressure;Samples;Min_cycle;Max_cycle;Signal;HPM_P1;HPM_P2
2021/06/25 00:02:56;;;;;;;21.89;16.58;;;;;;;16.60;93.53;99598.94;2017424;78;23578;-77
2021/06/25 00:05:59;;;;;;;26.10;16.59;;;;;;;16.60;93.36;99603.34;2016927;80;20183;-77
2021/06/25 00:09:02;;;;;;;21.52;17.38;;;;;;;16.61;93.18;99594.56;2017836;80;20237;-78
2021/06/25 00:12:07;;;;;;;25.65;18.36;;;;;;;16.62;92.94;99591.03;2017146;80;20171;-78
2021/06/25 00:15:12;;;;;;;24.46;18.67;;;;;;;16.60;92.78;99593.72;2017150;80;20241;-79
2021/06/25 00:18:15;;;;;;;22.15;18.11;;;;;;;16.62;92.74;99596.28;2022065;80;52995;-78
2021/06/25 00:21:18;;;;;;;23.85;18.89;;;;;;;16.59;92.78;99596.38;2023179;80;20200;-77
2021/06/25 00:24:21;;;;;;;26.04;19.90;;;;;;;16.61;92.69;99598.06;2023093;80;21051;-77
2021/06/25 00:27:23;;;;;;;24.84;19.92;;;;;;;16.60;92.62;99598.09;2023129;80;20249;-77
2021/06/25 00:30:26;;;;;;;25.35;20.66;;;;;;;16.59;92.52;99593.75;2021787;78;21987;-77
2021/06/25 00:33:30;;;;;;;26.86;20.49;;;;;;;16.56;92.53;99593.84;2017185;80;20297;-78
2021/06/25 00:36:32;;;;;;;27.48;21.16;;;;;;;16.56;92.60;99596.47;2016669;80;20569;-78
2021/06/25 00:39:35;;;;;;;25.25;21.88;;;;;;;16.57;92.75;99599.03;2020441;80;20270;-77
2021/06/25 00:42:39;;;;;;;26.55;22.25;;;;;;;16.57;92.55;99596.41;2017265;80;20750;-78
2021/06/25 00:45:41;;;;;;;28.29;22.71;;;;;;;16.50;92.29;99592.22;2018358;78;20868;-77
2021/06/25 00:48:44;;;;;;;27.56;23.15;;;;;;;16.49;92.32;99593.09;2022435;80;20196;-78
2021/06/25 00:51:47;;;;;;;27.42;22.33;;;;;;;16.51;92.21;99595.69;2023270;80;20584;-78
2021/06/25 00:54:50;;;;;;;29.74;23.41;;;;;;;16.51;92.10;99590.44;2022197;80;20199;-78
2021/06/25 00:57:53;;;;;;;30.76;23.19;;;;;;;16.51;91.84;99587.81;2022493;80;20288;-78
2021/06/25 01:00:55;;;;;;;27.85;23.55;;;;;;;16.48;91.98;99580.03;2021958;77;21536;-78
2021/06/25 01:03:58;;;;;;;27.65;22.89;;;;;;;16.44;91.93;99584.50;2023773;80;20697;-78
2021/06/25 01:07:02;;;;;;;28.17;24.05;;;;;;;16.43;92.17;99584.56;2022815;80;20821;-78
2021/06/25 01:10:08;;;;;;;28.15;24.83;;;;;;;16.42;92.35;99585.44;2022458;80;20203;-77
2021/06/25 01:13:10;;;;;;;30.95;25.02;;;;;;;16.37;92.08;99585.56;2022449;80;20269;-78
2021/06/25 01:16:14;;;;;;;31.75;25.69;;;;;;;16.38;92.11;99582.06;2019663;77;21699;-78
2021/06/25 01:19:17;;;;;;;29.19;26.00;;;;;;;16.40;92.10;99589.88;2017139;80;20164;-78
2021/06/25 01:22:43;;;;;;;29.65;25.60;;;;;;;16.36;92.07;99586.47;2017199;80;20228;-78
2021/06/25 01:25:45;;;;;;;28.27;24.90;;;;;;;16.36;92.02;99593.47;2017865;80;20203;-78
2021/06/25 01:28:48;;;;;;;27.41;24.58;;;;;;;16.37;91.99;99587.34;2017562;80;20179;-79
2021/06/25 01:31:51;;;;;;;28.92;24.16;;;;;;;16.37;92.17;99593.44;2019803;77;20223;-78
2021/06/25 01:34:55;;;;;;;27.55;24.63;;;;;;;16.36;92.31;99594.34;2023337;80;20191;-78
2021/06/25 01:37:58;;;;;;;28.14;25.14;;;;;;;16.36;92.13;99586.47;2025168;80;20205;-79
2021/06/25 01:41:00;;;;;;;28.86;25.61;;;;;;;16.37;91.83;99593.44;2024844;80;20216;-79
2021/06/25 01:44:04;;;;;;;31.58;25.89;;;;;;;16.38;91.55;99586.44;2022541;80;20293;-78
2021/06/25 01:47:06;;;;;;;30.38;26.15;;;;;;;16.36;91.49;99593.47;2018854;80;22291;-78
2021/06/25 01:50:13;;;;;;;27.49;24.55;;;;;;;16.33;91.54;99589.16;2017228;80;20898;-78
2021/06/25 01:53:17;;;;;;;28.08;25.13;;;;;;;16.31;91.62;99588.31;2017814;80;20168;-77
2021/06/25 01:56:20;;;;;;;28.65;25.58;;;;;;;16.30;91.66;99592.72;2016978;80;20183;-79
2021/06/25 01:59:23;;;;;;;29.85;25.90;;;;;;;16.28;91.62;99586.66;2018149;80;20726;-76
2021/06/25 02:02:25;;;;;;;30.25;25.89;;;;;;;16.22;91.15;99589.44;2021977;78;23012;-76
2021/06/25 02:05:28;;;;;;;28.61;25.56;;;;;;;16.17;90.87;99582.59;2023060;80;20179;-76
2021/06/25 02:08:31;;;;;;;34.80;26.38;;;;;;;16.13;90.96;99584.38;2023038;80;20220;-76
2021/06/25 02:11:35;;;;;;;31.58;25.80;;;;;;;16.08;90.97;99580.16;2023503;80;20777;-77
2021/06/25 02:14:37;;;;;;;30.98;26.39;;;;;;;16.07;91.28;99581.94;2024112;80;20211;-77
2021/06/25 02:17:40;;;;;;;29.84;26.70;;;;;;;16.06;91.36;99589.81;2022375;77;25833;-77
2021/06/25 02:20:43;;;;;;;29.45;26.42;;;;;;;15.98;91.09;99588.25;2023678;80;20208;-78
2021/06/25 02:23:46;;;;;;;28.94;25.81;;;;;;;16.00;91.29;99593.47;2023991;80;20219;-78
2021/06/25 02:26:48;;;;;;;30.35;26.24;;;;;;;15.99;91.37;99597.84;2022989;80;20171;-78
2021/06/25 02:29:51;;;;;;;29.84;25.27;;;;;;;15.97;91.34;99602.22;2023808;80;20201;-78
2021/06/25 02:32:54;;;;;;;31.11;26.25;;;;;;;15.95;91.28;99601.41;2016808;77;20753;-77
2021/06/25 02:35:56;;;;;;;33.09;26.23;;;;;;;15.91;91.29;99598.88;2018981;80;20720;-77
2021/06/25 02:38:59;;;;;;;31.91;26.88;;;;;;;15.87;91.09;99602.47;2019967;80;20665;-78
2021/06/25 02:42:04;;;;;;;32.53;26.46;;;;;;;15.78;91.29;99598.28;2018881;80;20192;-77
2021/06/25 02:45:08;;;;;;;35.16;26.29;;;;;;;15.79;91.61;99605.25;2018749;80;20303;-77
2021/06/25 02:48:11;;;;;;;30.08;25.54;;;;;;;15.77;91.64;99599.19;2024110;77;20649;-78
2021/06/25 02:51:13;;;;;;;30.80;26.38;;;;;;;15.73;91.71;99597.53;2023819;80;20278;-78
2021/06/25 02:54:16;;;;;;;31.02;26.11;;;;;;;15.70;91.58;99601.09;2025065;80;20163;-78
2021/06/25 02:57:19;;;;;;;32.20;25.56;;;;;;;15.66;91.62;99591.59;2024468;80;20232;-78
2021/06/25 03:00:22;;;;;;;37.38;26.01;;;;;;;15.63;91.79;99590.81;2027388;78;20456;-77
2021/06/25 03:03:25;;;;;;;29.66;25.00;;;;;;;15.60;92.03;99590.84;2018722;80;20195;-78
2021/06/25 03:06:27;;;;;;;28.65;25.44;;;;;;;15.61;92.17;99590.81;2018133;80;20805;-78
2021/06/25 03:09:30;;;;;;;28.27;25.10;;;;;;;15.61;92.27;99593.44;2017779;80;21001;-78
2021/06/25 03:12:33;;;;;;;30.24;24.96;;;;;;;15.60;92.36;99585.59;2017390;80;20909;-78
2021/06/25 03:15:36;;;;;;;27.39;24.45;;;;;;;15.58;92.32;99587.38;2018022;77;20413;-78
2021/06/25 03:18:38;;;;;;;27.94;24.86;;;;;;;15.58;92.35;99584.75;2023225;80;20201;-77
2021/06/25 03:21:41;;;;;;;29.44;25.26;;;;;;;15.60;92.48;99585.59;2023417;80;20740;-78
2021/06/25 03:24:44;;;;;;;29.01;25.39;;;;;;;15.61;92.76;99592.56;2026518;79;20219;-77
2021/06/25 03:27:46;;;;;;;27.49;24.63;;;;;;;15.61;92.71;99596.03;2023785;80;20200;-77
2021/06/25 03:30:49;;;;;;;29.09;24.46;;;;;;;15.59;92.47;99586.50;2021097;77;20958;-77
2021/06/25 03:33:52;;;;;;;30.55;25.13;;;;;;;15.56;92.46;99582.16;2018444;80;20694;-77
2021/06/25 03:36:55;;;;;;;31.67;26.05;;;;;;;15.57;92.50;99591.75;2018518;80;21124;-78
2021/06/25 03:39:57;;;;;;;27.35;24.50;;;;;;;15.56;92.43;99590.03;2017758;80;20299;-77
2021/06/25 03:43:00;;;;;;;29.30;25.85;;;;;;;15.55;92.52;99596.16;2018078;80;20645;-77
2021/06/25 03:46:03;;;;;;;27.45;24.63;;;;;;;15.52;92.41;99597.97;2020729;77;26084;-77
2021/06/25 03:49:07;;;;;;;30.60;26.51;;;;;;;15.50;92.49;99602.38;2022961;80;21139;-78
2021/06/25 03:52:10;;;;;;;31.60;25.75;;;;;;;15.48;92.61;99594.56;2023167;80;20632;-78
2021/06/25 03:55:13;;;;;;;28.77;25.55;;;;;;;15.52;92.87;99596.22;2022655;80;20224;-77
2021/06/25 03:58:15;;;;;;;27.59;24.79;;;;;;;15.54;93.11;99602.28;2023182;80;20628;-78
2021/06/25 04:01:20;;;;;;;31.26;25.83;;;;;;;15.56;93.18;99599.63;2022387;77;24741;-78
2021/06/25 04:04:23;;;;;;;29.83;26.76;;;;;;;15.60;93.44;99596.94;2022389;80;20202;-77
2021/06/25 04:07:27;;;;;;;30.86;26.36;;;;;;;15.61;93.20;99597.81;2022653;80;20208;-77
2021/06/25 04:10:29;;;;;;;28.51;25.38;;;;;;;15.60;93.21;99596.06;2022604;80;20207;-77
2021/06/25 04:13:34;;;;;;;31.36;25.91;;;;;;;15.62;93.14;99591.69;2023132;80;20935;-77
2021/06/25 04:16:37;;;;;;;30.16;26.84;;;;;;;15.61;93.13;99589.94;2019204;77;22282;-77
2021/06/25 04:19:39;;;;;;;31.76;26.76;;;;;;;15.63;93.37;99593.41;2018108;80;20303;-77
2021/06/25 04:22:42;;;;;;;32.05;26.70;;;;;;;15.61;93.39;99603.03;2017345;80;20268;-77
2021/06/25 04:25:46;;;;;;;39.22;28.41;;;;;;;15.62;93.27;99599.56;2018627;80;20201;-78
2021/06/25 04:28:49;;;;;;;36.95;27.79;;;;;;;15.67;93.27;99602.91;2017436;80;20209;-77
2021/06/25 04:31:54;;;;;;;31.09;27.51;;;;;;;15.68;93.23;99600.28;2017153;77;22413;-78
2021/06/25 04:34:57;;;;;;;31.73;27.69;;;;;;;15.66;92.98;99598.59;2017542;80;20334;-78
2021/06/25 04:38:01;;;;;;;33.47;28.79;;;;;;;15.66;93.15;99596.81;2017488;80;20176;-78
2021/06/25 04:41:04;;;;;;;33.00;27.09;;;;;;;15.71;93.11;99600.19;2017537;80;20801;-78
2021/06/25 04:44:07;;;;;;;32.39;27.25;;;;;;;15.73;92.69;99601.91;2017104;80;20602;-78
2021/06/25 04:47:09;;;;;;;34.94;29.10;;;;;;;15.74;92.43;99601.03;2020298;77;21536;-78
2021/06/25 04:50:12;;;;;;;34.49;27.92;;;;;;;15.74;92.05;99609.75;2022472;80;20192;-78
2021/06/25 04:53:15;;;;;;;34.45;28.05;;;;;;;15.76;92.20;99601.84;2022522;80;20210;-78
2021/06/25 04:56:19;;;;;;;32.50;28.16;;;;;;;15.76;92.11;99601.84;2021387;80;20179;-78
2021/06/25 04:59:22;;;;;;;31.34;28.06;;;;;;;15.80;92.12;99613.97;2022540;80;20216;-78
2021/06/25 05:02:24;;;;;;;33.31;27.88;;;;;;;15.83;91.96;99617.41;2022508;77;28023;-78
2021/06/25 05:05:27;;;;;;;33.90;27.52;;;;;;;15.86;91.68;99616.47;2022167;80;20220;-78
2021/06/25 05:08:30;;;;;;;34.86;27.98;;;;;;;15.91;91.77;99607.59;2026056;80;20178;-77
2021/06/25 05:11:33;;;;;;;31.38;27.90;;;;;;;15.94;91.53;99606.66;2022464;80;20255;-78
2021/06/25 05:14:35;;;;;;;32.11;28.05;;;;;;;15.99;91.58;99602.22;2023092;80;20294;-78
2021/06/25 05:17:38;;;;;;;35.34;28.79;;;;;;;16.05;91.59;99606.44;2017221;80;20843;-77
2021/06/25 05:21:00;;;;;;;35.96;29.69;;;;;;;16.02;91.18;99608.25;2017107;80;20293;-77
2021/06/25 05:24:04;;;;;;;34.44;28.84;;;;;;;16.05;91.17;99607.31;2017981;80;20249;-78
2021/06/25 05:27:07;;;;;;;34.49;28.90;;;;;;;16.06;90.71;99610.78;2018703;80;20671;-78
2021/06/25 05:30:10;;;;;;;35.54;28.24;;;;;;;16.08;90.58;99606.38;2016761;80;20349;-80
2021/06/25 05:33:13;;;;;;;35.40;29.77;;;;;;;16.10;90.48;99601.94;2023197;77;21749;-76
2021/06/25 05:36:15;;;;;;;32.46;28.41;;;;;;;16.06;90.05;99606.41;2021885;80;20699;-75
2021/06/25 05:39:18;;;;;;;36.35;29.91;;;;;;;16.08;90.34;99612.47;2022189;80;20167;-76
2021/06/25 05:42:21;;;;;;;36.00;29.96;;;;;;;16.14;90.35;99603.59;2022496;80;20167;-77
2021/06/25 05:45:24;;;;;;;37.36;29.21;;;;;;;16.15;90.42;99619.25;2017289;77;27469;-77
2021/06/25 05:48:27;;;;;;;35.46;30.04;;;;;;;16.18;90.70;99618.38;2018636;80;20904;-72
2021/06/25 05:51:29;;;;;;;34.72;29.96;;;;;;;16.20;90.63;99621.81;2013965;80;20172;-73
2021/06/25 05:54:32;;;;;;;35.96;29.99;;;;;;;16.20;90.21;99620.03;2017226;80;20179;-72
2021/06/25 05:57:35;;;;;;;41.04;31.11;;;;;;;16.22;89.69;99622.63;2016839;80;20252;-73
2021/06/25 06:00:39;;;;;;;38.15;31.31;;;;;;;16.22;89.39;99625.25;2020633;77;20572;-73
2021/06/25 06:03:41;;;;;;;44.17;31.99;;;;;;;16.21;89.11;99618.28;2022433;80;20207;-73
2021/06/25 06:06:44;;;;;;;43.45;30.99;;;;;;;16.18;89.12;99618.38;2022772;80;20204;-75
2021/06/25 06:09:47;;;;;;;38.40;31.21;;;;;;;16.19;89.03;99630.56;2023637;80;20238;-74
2021/06/25 06:12:50;;;;;;;34.79;30.25;;;;;;;16.14;88.59;99624.53;2022444;80;20744;-75
2021/06/25 06:15:54;;;;;;;40.09;31.19;;;;;;;16.12;88.70;99626.34;2021210;77;21042;-74
2021/06/25 06:18:56;;;;;;;38.99;31.31;;;;;;;16.07;88.81;99625.59;2018457;80;20191;-73
2021/06/25 06:35:17;;;;;;;41.13;31.31;;;;;;;16.07;89.26;99626.47;2021815;80;20250;-80
2021/06/25 06:38:20;;;;;;;35.29;30.73;;;;;;;16.08;89.29;99630.78;2022270;80;20188;-75
2021/06/25 06:41:24;;;;;;;43.96;31.69;;;;;;;16.10;89.13;99622.91;2022926;80;20167;-74
2021/06/25 06:44:26;;;;;;;34.85;31.04;;;;;;;16.18;89.41;99634.09;2024458;80;20167;-77
2021/06/25 06:47:29;;;;;;;38.51;32.06;;;;;;;16.25;88.77;99631.28;2021967;77;21913;-76
2021/06/25 06:50:32;;;;;;;40.92;31.55;;;;;;;16.36;88.86;99644.13;2022088;80;20668;-76
2021/06/25 06:53:35;;;;;;;44.16;32.88;;;;;;;16.43;88.56;99640.44;2021859;80;20205;-77
2021/06/25 06:56:37;;;;;;;38.65;30.92;;;;;;;16.49;88.24;99636.81;2023110;80;20216;-76
2021/06/25 06:59:40;;;;;;;45.70;33.41;;;;;;;16.59;88.08;99641.81;2022465;80;20203;-73
2021/06/25 07:02:44;;;;;;;37.95;31.21;;;;;;;16.73;88.08;99641.50;2017118;78;20526;-77
2021/06/25 07:05:46;;;;;;;37.70;32.01;;;;;;;16.77;86.85;99643.13;2017706;80;20682;-74
2021/06/25 07:08:49;;;;;;;39.17;31.65;;;;;;;16.86;86.77;99644.63;2016923;80;20221;-75
2021/06/25 07:11:51;;;;;;;35.85;30.75;;;;;;;16.99;86.75;99642.56;2018403;80;20184;-74
2021/06/25 07:14:54;;;;;;;37.20;32.25;;;;;;;17.14;86.95;99652.66;2017743;80;20270;-77
2021/06/25 07:17:56;;;;;;;44.66;31.19;;;;;;;17.25;86.80;99657.63;2022280;77;21656;-78
2021/06/25 07:20:59;;;;;;;37.60;30.56;;;;;;;17.33;85.44;99655.66;2023624;80;20187;-75
2021/06/25 07:24:03;;;;;;;41.49;32.50;;;;;;;17.37;84.03;99658.13;2023011;80;20291;-79
2021/06/25 07:27:06;;;;;;;44.95;32.94;;;;;;;17.42;83.01;99660.66;2022127;80;20215;-74
2021/06/25 07:30:09;;;;;;;38.15;31.45;;;;;;;17.55;83.96;99658.53;2022132;80;20155;-73
2021/06/25 07:33:12;;;;;;;39.13;31.23;;;;;;;17.57;82.08;99664.59;2016747;77;20924;-74
2021/06/25 07:36:15;;;;;;;38.35;30.81;;;;;;;17.59;81.94;99670.66;2017113;80;20202;-70
2021/06/25 07:39:18;;;;;;;96.15;41.14;;;;;;;17.67;82.31;99666.91;2017616;80;20536;-73
2021/06/25 07:42:21;;;;;;;359.02;113.82;;;;;;;17.75;81.56;99669.34;2017259;80;20201;-72
2021/06/25 07:45:24;;;;;;;45.75;33.91;;;;;;;17.85;81.44;99662.94;2017152;80;20636;-71
2021/06/25 07:48:26;;;;;;;38.91;31.60;;;;;;;17.97;80.68;99669.59;2022254;80;20199;-72
2021/06/25 07:51:29;;;;;;;34.74;29.46;;;;;;;18.11;80.70;99670.00;2021927;80;20207;-72
2021/06/25 07:54:31;;;;;;;36.66;28.50;;;;;;;18.27;78.17;99670.41;2022423;80;20244;-72
2021/06/25 07:57:34;;;;;;;37.35;29.74;;;;;;;18.45;77.08;99668.97;2022833;80;20163;-71
2021/06/25 08:00:38;;;;;;;36.38;28.59;;;;;;;18.66;76.91;99673.56;2023758;77;21115;-72
2021/06/25 08:03:41;;;;;;;34.49;27.33;;;;;;;18.84;76.43;99661.56;2016501;80;20175;-72
2021/06/25 08:06:43;;;;;;;34.47;28.15;;;;;;;19.04;75.97;99656.50;2017928;80;20175;-73
2021/06/25 08:09:46;;;;;;;33.64;27.25;;;;;;;19.04;74.83;99659.13;2016911;80;20273;-73
2021/06/25 08:12:48;;;;;;;32.61;26.90;;;;;;;19.12;75.01;99658.84;2017461;80;20183;-71
2021/06/25 08:15:51;;;;;;;36.19;26.95;;;;;;;19.14;73.77;99649.13;2016331;77;20401;-72
2021/06/25 08:18:57;;;;;;;35.96;25.86;;;;;;;19.18;72.92;99648.97;2021141;80;20179;-71
2021/06/25 08:22:00;;;;;;;28.59;25.45;;;;;;;19.29;74.02;99646.81;2020953;80;20931;-72
2021/06/25 08:25:03;;;;;;;33.45;24.83;;;;;;;19.33;73.49;99650.19;2020751;80;21246;-72
2021/06/25 08:28:06;;;;;;;32.84;23.99;;;;;;;19.32;73.20;99649.34;2021052;80;20797;-72
2021/06/25 08:31:08;;;;;;;30.40;24.95;;;;;;;19.37;73.53;99659.69;2018062;77;20521;-72
2021/06/25 08:34:12;;;;;;;31.89;25.38;;;;;;;19.40;73.04;99645.59;2015656;80;20200;-72
2021/06/25 08:37:14;;;;;;;28.81;25.30;;;;;;;19.30;72.36;99651.16;2014765;80;20222;-72
2021/06/25 08:40:17;;;;;;;29.46;24.92;;;;;;;19.46;70.63;99653.25;2015611;80;20750;-72
2021/06/25 08:43:20;;;;;;;30.10;24.35;;;;;;;19.64;71.49;99649.97;2016607;80;20179;-71
2021/06/25 08:46:23;;;;;;;26.70;23.71;;;;;;;19.80;71.08;99647.63;2016960;77;20997;-72
2021/06/25 08:49:28;;;;;;;28.39;23.10;;;;;;;19.80;70.66;99640.56;2020970;80;20207;-72
2021/06/25 08:52:31;;;;;;;26.77;22.99;;;;;;;19.63;70.75;99642.97;2020748;80;20220;-72
2021/06/25 08:55:43;;;;;;;27.55;23.23;;;;;;;19.60;71.46;99646.59;2021006;80;20179;-72
2021/06/25 08:58:46;;;;;;;27.69;22.16;;;;;;;19.97;71.21;99639.06;2020417;80;20159;-72
2021/06/25 09:01:50;;;;;;;25.27;20.58;;;;;;;20.35;70.20;99637.56;2017433;77;21003;-72
2021/06/25 09:04:52;;;;;;;26.55;21.59;;;;;;;20.20;69.05;99639.88;2016791;80;20301;-72
2021/06/25 09:07:58;;;;;;;25.01;20.96;;;;;;;20.12;68.36;99635.84;2016520;80;20212;-72
2021/06/25 09:11:01;;;;;;;33.09;20.90;;;;;;;19.93;68.55;99640.97;2016811;80;20282;-72
2021/06/25 09:14:04;;;;;;;26.48;20.49;;;;;;;19.94;68.50;99641.84;2016701;80;20227;-71
2021/06/25 09:17:07;;;;;;;23.33;18.06;;;;;;;20.07;68.16;99643.06;2019723;78;20498;-72
2021/06/25 09:20:47;;;;;;;19.40;16.92;;;;;;;20.49;68.12;99643.16;2021353;80;20163;-71
2021/06/25 09:23:50;;;;;;;18.44;15.60;;;;;;;20.87;65.83;99632.78;2022040;80;20179;-72
2021/06/25 09:27:04;;;;;;;20.42;15.40;;;;;;;21.08;64.69;99639.78;2022502;80;20183;-71
2021/06/25 09:30:12;;;;;;;17.67;13.74;;;;;;;21.23;62.37;99632.97;2021565;80;20212;-72
2021/06/25 09:33:18;;;;;;;12.11;10.43;;;;;;;21.48;61.31;99623.06;2021645;77;53304;-72
2021/06/25 09:36:24;;;;;;;8.81;7.57;;;;;;;21.97;60.55;99637.50;2021209;80;20231;-71
2021/06/25 09:39:26;;;;;;;10.49;7.78;;;;;;;22.38;59.51;99629.41;2021370;80;20682;-71
2021/06/25 09:42:29;;;;;;;9.34;7.03;;;;;;;22.27;56.30;99624.66;2021215;80;20226;-72
2021/06/25 09:45:32;;;;;;;7.46;6.66;;;;;;;22.05;57.54;99623.09;2020772;77;20732;-71
2021/06/25 09:48:55;;;;;;;9.68;8.11;;;;;;;21.90;56.72;99627.28;2022014;80;20175;-71
2021/06/25 09:52:01;;;;;;;8.23;6.61;;;;;;;21.49;55.58;99621.25;2022524;80;21069;-72
2021/06/25 09:55:07;;;;;;;8.44;5.80;;;;;;;21.14;59.46;99628.94;2021681;80;20289;-73
2021/06/25 10:01:32;;;;;;;5.79;5.19;;;;;;;20.55;59.30;99629.72;2019046;77;21512;-72
2021/06/25 10:04:37;;;;;;;10.20;4.91;;;;;;;20.22;58.82;99626.63;2017656;80;20256;-72
2021/06/25 10:07:40;;;;;;;8.41;5.09;;;;;;;19.94;62.15;99641.84;2016948;80;20176;-72
2021/06/25 10:10:42;;;;;;;7.80;5.28;;;;;;;19.71;63.03;99632.16;2015871;80;20225;-72
2021/06/25 10:13:47;;;;;;;7.70;5.69;;;;;;;19.59;64.19;99634.34;2016595;80;20199;-73
2021/06/25 10:16:50;;;;;;;9.35;6.03;;;;;;;19.59;64.90;99634.34;2018473;80;20347;-73
2021/06/25 10:20:01;;;;;;;7.75;6.59;;;;;;;19.72;64.60;99637.34;2022314;80;20204;-73
2021/06/25 10:23:07;;;;;;;12.52;5.97;;;;;;;19.78;61.75;99634.50;2022329;80;20224;-73
2021/06/25 10:26:11;;;;;;;7.47;6.70;;;;;;;19.87;61.77;99628.00;2021441;80;20848;-72
2021/06/25 10:29:14;;;;;;;10.95;6.13;;;;;;;19.97;62.03;99634.66;2021424;80;21064;-72
2021/06/25 10:32:17;;;;;;;8.32;6.71;;;;;;;20.02;61.88;99635.31;2016629;77;20195;-74
2021/06/25 10:35:20;;;;;;;9.44;5.71;;;;;;;20.06;60.71;99628.16;2017104;80;20621;-73
2021/06/25 10:38:27;;;;;;;7.63;4.66;;;;;;;20.09;62.35;99620.97;2017252;80;20290;-73
2021/06/25 10:41:52;;;;;;;5.96;4.35;;;;;;;20.17;60.96;99625.97;2016600;80;20641;-73
2021/06/25 10:44:56;;;;;;;4.55;3.49;;;;;;;20.21;57.91;99617.84;2016984;80;21033;-73
2021/06/25 10:47:59;;;;;;;5.57;3.34;;;;;;;20.20;58.34;99617.94;2015458;77;21969;-73
2021/06/25 10:51:22;;;;;;;5.20;3.44;;;;;;;20.34;59.38;99620.00;2016927;80;20299;-73
2021/06/25 10:54:24;;;;;;;7.49;3.29;;;;;;;20.47;59.69;99614.22;2016874;80;20292;-73
2021/06/25 10:57:29;;;;;;;4.56;3.21;;;;;;;20.81;59.25;99618.06;2017750;80;20202;-73
2021/06/25 11:00:37;;;;;;;3.59;3.24;;;;;;;21.48;57.85;99606.34;2021146;77;20232;-73
2021/06/25 11:03:45;;;;;;;5.10;3.47;;;;;;;22.15;56.77;99619.09;2022460;80;20737;-74
2021/06/25 11:06:47;;;;;;;8.89;4.03;;;;;;;;;;2023179;80;20174;-73
2021/06/25 11:09:53;;;;;;;4.80;3.80;;;;;;;21.90;51.80;99598.19;2021855;80;20212;-74
2021/06/25 11:13:12;;;;;;;3.54;3.24;;;;;;;21.58;54.18;99603.22;2021955;80;20183;-73
2021/06/25 11:16:19;;;;;;;3.70;3.20;;;;;;;21.10;55.65;99612.38;2018606;77;20439;-74
2021/06/25 11:19:39;;;;;;;5.50;3.40;;;;;;;20.84;56.99;99607.38;2017228;80;20815;-73
2021/06/25 11:22:42;;;;;;;7.57;2.75;;;;;;;20.68;56.37;99601.91;2017061;80;20972;-73
2021/06/25 11:25:50;;;;;;;8.14;3.84;;;;;;;20.71;57.04;99601.75;2017048;80;20211;-73
2021/06/25 11:28:54;;;;;;;4.89;2.66;;;;;;;20.78;56.81;99602.34;2017528;80;20304;-73
2021/06/25 11:32:12;;;;;;;3.42;2.47;;;;;;;20.85;56.60;99598.53;2018841;77;21505;-72
2021/06/25 11:35:41;;;;;;;3.28;2.76;;;;;;;20.84;55.79;99601.25;2022283;80;20319;-73
2021/06/25 11:38:56;;;;;;;;;;;;;;;20.71;57.50;99601.75;2022134;80;20240;-73
2021/06/25 11:42:05;;;;;;;4.26;2.64;;;;;;;20.67;57.00;99600.19;2022454;80;20437;-74
2021/06/25 11:45:08;;;;;;;2.97;2.47;;;;;;;21.15;58.22;99598.97;2021886;80;20179;-73
2021/06/25 11:48:11;;;;;;;3.85;2.46;;;;;;;21.59;52.94;99594.38;2021985;77;22003;-73
2021/06/25 11:51:16;;;;;;;3.96;2.54;;;;;;;21.77;53.10;99591.78;2022793;80;20183;-73
2021/06/25 11:54:22;;;;;;;3.17;2.55;;;;;;;21.81;52.98;99586.28;2022202;80;20822;-73
2021/06/25 11:57:29;;;;;;;2.76;2.13;;;;;;;21.99;54.71;99592.47;2019133;80;20334;-72
2021/06/25 12:00:32;;;;;;;3.96;2.60;;;;;;;22.37;55.42;99588.00;2020618;77;20294;-73
2021/06/25 12:03:45;;;;;;;3.38;2.25;;;;;;;23.16;54.50;99578.66;2017202;80;20755;-73
2021/06/25 12:06:50;;;;;;;4.06;2.22;;;;;;;23.52;51.85;99577.63;2016124;80;20172;-72
2021/06/25 12:09:53;;;;;;;2.38;1.90;;;;;;;23.53;52.33;99582.00;2016373;80;20672;-73
2021/06/25 12:12:58;;;;;;;2.85;1.95;;;;;;;23.31;50.98;99576.13;2017074;80;20184;-74
2021/06/25 12:16:00;;;;;;;2.81;1.92;;;;;;;23.21;51.38;99563.38;2016946;78;20674;-74
2021/06/25 12:19:10;;;;;;;2.64;1.51;;;;;;;23.17;49.16;99563.63;2016677;80;20201;-73
2021/06/25 12:22:13;;;;;;;3.86;2.25;;;;;;;23.03;51.47;99567.00;2016192;80;20200;-73
2021/06/25 12:25:31;;;;;;;4.28;1.96;;;;;;;23.06;50.55;99560.69;2016717;80;20315;-72
2021/06/25 12:28:35;;;;;;;2.51;1.67;;;;;;;23.07;49.27;99559.75;2016322;80;20204;-73
2021/06/25 12:31:37;;;;;;;1.95;1.09;;;;;;;23.15;50.42;99570.78;2018882;78;20699;-73
2021/06/25 12:34:40;;;;;;;2.90;1.51;;;;;;;23.20;49.49;99569.63;2020979;80;20219;-72
2021/06/25 12:37:53;;;;;;;3.60;1.26;;;;;;;23.06;48.05;99565.97;2021438;80;20503;-72
2021/06/25 12:41:02;;;;;;;3.55;1.16;;;;;;;22.88;48.81;99568.66;2021418;80;20211;-73
2021/06/25 12:44:05;;;;;;;2.74;1.39;;;;;;;22.74;48.60;99565.81;2022001;80;20232;-73
2021/06/25 12:47:08;;;;;;;2.79;1.25;;;;;;;22.72;50.46;99569.50;2017217;77;20633;-73
2021/06/25 12:50:11;;;;;;;5.51;1.31;;;;;;;22.59;50.89;99571.91;2016434;80;20823;-72
2021/06/25 12:53:19;;;;;;;4.80;1.51;;;;;;;22.52;51.93;99575.78;2016354;80;20171;-74
2021/06/25 12:56:26;;;;;;;2.08;1.38;;;;;;;22.29;51.03;99571.66;2016252;80;20201;-72
2021/06/25 12:59:30;;;;;;;2.42;1.50;;;;;;;22.17;51.47;99580.19;2016264;80;20172;-75
2021/06/25 13:02:35;;;;;;;2.30;1.70;;;;;;;22.11;53.76;99567.28;2019655;77;46613;-74
2021/06/25 13:05:38;;;;;;;2.26;1.38;;;;;;;22.13;53.19;99568.06;2021801;80;20228;-73
2021/06/25 13:08:41;;;;;;;3.74;2.21;;;;;;;22.17;52.05;99570.47;2021470;80;20273;-72
2021/06/25 13:11:44;;;;;;;2.67;1.36;;;;;;;22.14;53.20;99570.63;2021720;80;20193;-72
2021/06/25 13:14:57;;;;;;;1.86;1.50;;;;;;;22.42;54.52;99561.31;2021971;80;20167;-73
2021/06/25 13:18:02;;;;;;;1.76;1.30;;;;;;;22.64;51.85;99555.81;2016012;78;21922;-74
2021/06/25 13:21:27;;;;;;;3.96;1.79;;;;;;;22.49;50.18;99554.78;2012326;80;21009;-73
2021/06/25 13:24:58;;;;;;;3.74;1.50;;;;;;;22.47;51.47;99549.56;2016625;80;20176;-73
2021/06/25 13:28:00;;;;;;;4.36;1.61;;;;;;;22.37;51.85;99555.41;2013631;80;20201;-73
2021/06/25 13:31:05;;;;;;;4.11;1.40;;;;;;;22.45;53.58;99542.66;2015418;77;22043;-73
2021/06/25 13:34:09;;;;;;;2.65;1.26;;;;;;;22.45;52.97;99543.50;2024400;79;20191;-74
2021/06/25 13:37:12;;;;;;;1.83;1.29;;;;;;;22.69;53.80;99544.03;2019305;80;20186;-74
2021/06/25 13:40:20;;;;;;;3.70;1.34;;;;;;;22.94;51.43;99538.34;2019251;80;20178;-70
2021/06/25 13:43:32;;;;;;;2.15;1.34;;;;;;;23.36;53.01;99550.25;2020351;80;20293;-72
2021/06/25 13:46:40;;;;;;;3.86;1.21;;;;;;;23.49;49.74;99549.47;2015924;77;20839;-72
2021/06/25 13:49:52;;;;;;;1.74;1.12;;;;;;;23.59;51.23;99549.88;2014549;80;20222;-71
2021/06/25 13:52:57;;;;;;;2.35;1.20;;;;;;;23.46;48.50;99546.13;2014845;80;20303;-75
2021/06/25 13:56:03;;;;;;;2.96;1.09;;;;;;;23.26;48.63;99543.72;2014928;80;20213;-73
2021/06/25 13:59:06;;;;;;;1.27;1.08;;;;;;;23.17;49.63;99548.59;2014347;80;20259;-71
2021/06/25 14:02:09;;;;;;;1.65;1.20;;;;;;;23.16;49.80;99543.34;2017102;77;20194;-70
2021/06/25 14:05:12;;;;;;;3.10;1.10;;;;;;;23.03;48.96;99544.97;2019759;80;20167;-73
2021/06/25 14:08:15;;;;;;;2.95;1.23;;;;;;;22.73;48.29;99542.94;2020988;80;20187;-72
2021/06/25 14:11:23;;;;;;;1.85;1.20;;;;;;;22.63;49.13;99548.81;2020642;80;20883;-71
2021/06/25 14:14:26;;;;;;;4.09;1.36;;;;;;;22.42;49.32;99550.72;2022132;80;20202;-71
2021/06/25 14:17:32;;;;;;;4.86;1.30;;;;;;;22.39;48.87;99545.59;2015946;78;20496;-72
2021/06/25 14:20:35;;;;;;;2.74;1.11;;;;;;;22.30;49.56;99552.22;2016172;80;20212;-72
2021/06/25 14:23:38;;;;;;;5.66;1.56;;;;;;;22.20;48.52;99541.22;2017248;80;20168;-72
2021/06/25 14:26:41;;;;;;;1.20;1.10;;;;;;;22.31;48.81;99541.53;2016812;80;20205;-72
2021/06/25 14:29:44;;;;;;;3.97;1.10;;;;;;;22.54;49.20;99540.38;2017057;80;20189;-71
2021/06/25 14:32:46;;;;;;;2.31;1.24;;;;;;;22.61;47.16;99535.63;2021481;77;20674;-72
2021/06/25 14:35:53;;;;;;;3.70;1.30;;;;;;;23.00;47.65;99535.38;2023112;80;21388;-75